createdAt,value
2023-03-26T00:04:30.885Z,4.06
2023-03-26T00:08:33.743Z,4.06
2023-03-26T00:14:38.367Z,4.06
2023-03-26T00:18:41.623Z,4.06
2023-03-26T00:24:46.495Z,4.06
2023-03-26T00:28:47.723Z,4.05
2023-03-26T00:30:48.841Z,4.06
2023-03-26T00:34:51.886Z,4.06
2023-03-26T00:40:56.489Z,4.05
2023-03-26T00:47:01.289Z,4.05
2023-03-26T00:51:04.324Z,4.05
2023-03-26T00:57:08.218Z,4.05
2023-03-26T01:01:10.381Z,4.05
2023-03-26T01:03:12.947Z,4.05
2023-03-26T01:07:14.972Z,4.05
2023-03-26T01:11:18.642Z,4.05
2023-03-26T01:13:19.835Z,4.05
2023-03-26T01:17:22.570Z,4.05
2023-03-26T01:23:26.025Z,4.05
2023-03-26T01:27:28.974Z,4.05
2023-03-26T01:29:30.592Z,4.05
2023-03-26T01:33:33.648Z,4.05
2023-03-26T01:39:37.476Z,4.05
2023-03-26T01:40:21.308Z,4.05
2023-03-26T01:44:24.826Z,4.05
2023-03-26T01:48:27.866Z,4.04
2023-03-26T01:50:29.453Z,4.04
2023-03-26T01:54:31.832Z,4.04
2023-03-26T01:58:34.399Z,4.04
2023-03-26T02:00:35.977Z,4.04
2023-03-26T02:04:38.526Z,4.04
2023-03-26T02:06:39.895Z,4.04
2023-03-26T02:10:42.746Z,4.04
2023-03-26T02:16:46.433Z,4.04
2023-03-26T02:22:50.150Z,4.04
2023-03-26T02:26:53.317Z,4.04
2023-03-26T02:32:57.777Z,4.04
2023-03-26T02:37:01.117Z,4.04
2023-03-26T02:39:03.022Z,4.04
2023-03-26T02:43:05.432Z,4.04
2023-03-26T02:47:07.919Z,4.04
2023-03-26T02:49:09.224Z,4.04
2023-03-26T02:53:11.733Z,4.04
2023-03-26T02:59:16.316Z,4.04
2023-03-26T03:05:20.577Z,4.03
2023-03-26T03:09:24.141Z,4.03
2023-03-26T03:15:28.518Z,4.04
2023-03-26T03:19:30.928Z,4.03
2023-03-26T03:21:39.984Z,4.03
2023-03-26T03:25:34.939Z,4.03
2023-03-26T03:29:38.766Z,4.03
2023-03-26T03:31:39.960Z,4.03
2023-03-26T03:35:42.768Z,4.03
2023-03-26T03:39:44.927Z,4.03
2023-03-26T03:41:46.824Z,4.03
2023-03-26T03:45:50.229Z,4.03
2023-03-26T03:47:52.022Z,4.03
2023-03-26T03:51:54.833Z,4.03
2023-03-26T03:57:59.722Z,4.03
2023-03-26T04:02:02.995Z,4.02
2023-03-26T04:04:04.182Z,4.02
2023-03-26T04:08:07.317Z,4.02
2023-03-26T04:12:10.470Z,4.02
2023-03-26T04:14:11.577Z,4.02
2023-03-26T04:18:13.788Z,4.02
2023-03-26T04:22:16.605Z,4.02
2023-03-26T04:24:18.019Z,4.02
2023-03-26T04:28:20.471Z,4.02
2023-03-26T04:30:21.589Z,4.02
2023-03-26T04:32:23.506Z,4.02
2023-03-26T04:34:25.100Z,4.02
2023-03-26T04:40:28.637Z,4.02
2023-03-26T04:46:32.128Z,4.02
2023-03-26T04:50:35.293Z,4.02
2023-03-26T04:56:39.300Z,4.02
2023-03-26T05:00:42.258Z,4.02
2023-03-26T05:02:43.253Z,4.02
2023-03-26T05:06:46.159Z,4.02
2023-03-26T05:10:48.600Z,4.02
2023-03-26T05:12:49.987Z,4.02
2023-03-26T05:16:53.271Z,4.02
2023-03-26T05:22:57.003Z,4.02
2023-03-26T05:29:01.798Z,4.02
2023-03-26T05:33:04.929Z,4.02
2023-03-26T05:39:08.483Z,4.01
2023-03-26T05:43:11.599Z,4.02
2023-03-26T05:45:12.776Z,4.01
2023-03-26T05:49:15.181Z,4.01
2023-03-26T05:53:17.333Z,4.01
2023-03-26T05:55:18.664Z,4.01
2023-03-26T05:59:21.130Z,4.01
2023-03-26T06:03:24.656Z,4.01
2023-03-26T06:05:26.201Z,4.01
2023-03-26T06:09:29.288Z,4.01
2023-03-26T06:11:30.814Z,4.01
2023-03-26T06:15:34.364Z,4.01
2023-03-26T06:21:38.023Z,4
2023-03-26T06:25:50.834Z,4.01
2023-03-26T06:27:43.330Z,4
2023-03-26T06:31:46.276Z,4
2023-03-26T06:35:49.759Z,4.01
2023-03-26T06:37:50.849Z,4
2023-03-26T06:41:53.902Z,4
2023-03-26T06:45:57.108Z,4
2023-03-26T06:47:58.468Z,4.01
2023-03-26T06:52:03.314Z,4
2023-03-26T06:54:03.552Z,4
2023-03-26T06:56:07.856Z,4
2023-03-26T06:58:06.163Z,4
2023-03-26T07:04:10.893Z,4
2023-03-26T07:06:12.382Z,4
2023-03-26T07:10:14.649Z,4
2023-03-26T07:14:17.591Z,4
2023-03-26T07:20:21.432Z,4
2023-03-26T07:24:24.716Z,4
2023-03-26T07:26:26.068Z,4
2023-03-26T07:30:28.861Z,4
2023-03-26T07:34:31.711Z,4
2023-03-26T07:36:33.056Z,4
2023-03-26T07:40:35.756Z,4
2023-03-26T07:46:40.397Z,4
2023-03-26T07:52:44.884Z,4
2023-03-26T07:56:47.048Z,3.99
2023-03-26T08:02:52.480Z,4
2023-03-26T08:06:55.443Z,3.99
2023-03-26T08:08:57.262Z,4
2023-03-26T08:13:00.588Z,3.99
2023-03-26T08:17:03.437Z,3.99
2023-03-26T08:19:05.272Z,3.99
2023-03-26T08:23:08.762Z,3.99
2023-03-26T08:25:53.722Z,4
2023-03-26T08:29:57.037Z,4.02
2023-03-26T08:33:59.889Z,4.02
2023-03-26T08:40:03.661Z,4.01
2023-03-26T08:44:05.557Z,4.01
2023-03-26T08:46:07.144Z,4.01
2023-03-26T08:50:09.398Z,4.01
2023-03-26T08:54:12.240Z,4.01
2023-03-26T08:56:13.953Z,4.01
2023-03-26T09:00:17.370Z,4.01
2023-03-26T09:06:22.645Z,4.01
2023-03-26T09:12:26.726Z,4.01
2023-03-26T09:16:30.268Z,4.02
2023-03-26T09:22:34.921Z,4.03
2023-03-26T09:26:38.283Z,4.07
2023-03-26T09:28:39.299Z,4.07
2023-03-26T09:32:42.071Z,4.08
2023-03-26T09:36:44.528Z,4.09
2023-03-26T09:38:46.131Z,4.06
2023-03-26T09:42:48.795Z,4.06
2023-03-26T09:46:51.984Z,4.06
2023-03-26T09:48:53.768Z,4.06
2023-03-26T09:52:56.682Z,4.09
2023-03-26T09:54:57.661Z,4.1
2023-03-26T09:56:58.930Z,4.1
2023-03-26T09:58:59.883Z,4.08
2023-03-26T10:05:03.985Z,4.08
2023-03-26T10:07:05.571Z,4.08
2023-03-26T10:11:08.175Z,4.08
2023-03-26T10:15:10.799Z,4.08
2023-03-26T10:19:22.441Z,4.08
2023-03-26T10:21:14.936Z,4.08
2023-03-26T10:25:17.738Z,4.1
2023-03-26T10:27:18.937Z,4.1
2023-03-26T10:31:21.735Z,4.08
2023-03-26T10:35:24.689Z,4.09
2023-03-26T10:37:26.068Z,4.08
2023-03-26T10:41:29.646Z,4.09
2023-03-26T10:47:33.896Z,4.08
2023-03-26T10:53:38.653Z,4.08
2023-03-26T10:57:41.138Z,4.08
2023-03-26T11:03:46.185Z,4.08
2023-03-26T11:07:48.917Z,4.1
2023-03-26T11:09:50.663Z,4.1
2023-03-26T11:13:53.368Z,4.13
2023-03-26T11:17:56.225Z,4.14
2023-03-26T11:19:58.009Z,4.14
2023-03-26T11:24:04.619Z,4.15
2023-03-26T11:30:05.016Z,4.16
2023-03-26T11:36:09.810Z,4.16
2023-03-26T11:40:13.140Z,4.17
2023-03-26T11:46:16.928Z,4.17
2023-03-26T11:50:19.742Z,4.17
2023-03-26T11:52:21.440Z,4.18
2023-03-26T11:56:24.036Z,4.18
2023-03-26T12:00:26.274Z,4.18
2023-03-26T12:02:27.196Z,4.19
2023-03-26T12:06:30.305Z,4.19
2023-03-26T12:10:32.882Z,4.19
2023-03-26T12:12:34.289Z,4.19
2023-03-26T12:16:37.043Z,4.19
2023-03-26T12:18:38.494Z,4.19
2023-03-26T12:20:39.689Z,4.18
2023-03-26T12:22:43.070Z,4.17
2023-03-26T12:28:45.973Z,4.17
2023-03-26T12:34:51.524Z,4.19
2023-03-26T12:39:17.054Z,4.19
2023-03-26T12:44:59.900Z,4.2
2023-03-26T12:49:00.764Z,4.19
2023-03-26T12:51:01.782Z,4.19
2023-03-26T12:55:11.783Z,4.2
2023-03-26T12:59:07.453Z,4.2
2023-03-26T13:01:08.997Z,4.2
2023-03-26T13:05:11.689Z,4.2
2023-03-26T13:11:15.827Z,4.2
2023-03-26T13:17:19.602Z,4.2
2023-03-26T13:21:22.688Z,4.2
2023-03-26T13:27:26.416Z,4.2
2023-03-26T13:31:29.103Z,4.19
2023-03-26T13:33:30.492Z,4.19
2023-03-26T13:37:33.416Z,4.19
2023-03-26T13:41:36.944Z,4.19
2023-03-26T13:43:37.890Z,4.19
2023-03-26T13:47:41.085Z,4.19
2023-03-26T13:53:44.857Z,4.18
2023-03-26T13:59:49.711Z,4.18
2023-03-26T14:03:52.859Z,4.18
2023-03-26T14:09:57.067Z,4.18
2023-03-26T14:14:00.421Z,4.18
2023-03-26T14:16:01.393Z,4.18
2023-03-26T14:20:13.259Z,4.18
2023-03-26T14:24:07.324Z,4.18
2023-03-26T14:26:08.907Z,4.18
2023-03-26T14:30:11.452Z,4.18
2023-03-26T14:36:15.339Z,4.17
2023-03-26T14:42:19.025Z,4.17
2023-03-26T14:46:21.210Z,4.17
2023-03-26T14:52:24.495Z,4.17
2023-03-26T14:58:28.481Z,4.17
2023-03-26T15:02:32.147Z,4.17
2023-03-26T15:08:36.711Z,4.17
2023-03-26T15:13:23.765Z,4.17
2023-03-26T15:17:27.105Z,4.17
2023-03-26T15:19:28.021Z,4.17
2023-03-26T15:23:30.845Z,4.17
2023-03-26T15:29:34.358Z,4.16
2023-03-26T15:33:36.761Z,4.16
2023-03-26T15:35:38.379Z,4.16
2023-03-26T15:39:40.758Z,4.16
2023-03-26T15:43:43.554Z,4.16
2023-03-26T15:45:44.626Z,4.16
2023-03-26T15:49:47.656Z,4.16
2023-03-26T15:51:49.053Z,4.16
2023-03-26T15:53:50.862Z,4.16
2023-03-26T15:55:52.632Z,4.16
2023-03-26T16:01:56.758Z,4.16
2023-03-26T16:03:58.415Z,4.16
2023-03-26T16:08:00.932Z,4.16
2023-03-26T16:12:03.667Z,4.16
2023-03-26T16:18:08.566Z,4.16
2023-03-26T16:22:11.486Z,4.16
2023-03-26T16:24:12.859Z,4.16
2023-03-26T16:28:15.494Z,4.16
2023-03-26T16:32:18.290Z,4.15
2023-03-26T16:34:19.651Z,4.16
2023-03-26T16:38:23.147Z,4.16
2023-03-26T16:44:28.183Z,4.15
2023-03-26T16:50:31.649Z,4.16
2023-03-26T16:54:34.578Z,4.15
2023-03-26T17:00:38.341Z,4.15
2023-03-26T17:04:41.928Z,4.15
2023-03-26T17:06:43.272Z,4.15
2023-03-26T17:10:46.514Z,4.15
2023-03-26T17:14:48.481Z,4.15
2023-03-26T17:16:50.171Z,4.15
2023-03-26T17:26:58.556Z,4.14
2023-03-26T17:33:03.688Z,4.14
2023-03-26T17:37:05.988Z,4.14
2023-03-26T17:43:11.326Z,4.14
2023-03-26T17:47:14.602Z,4.14
2023-03-26T17:49:16.098Z,4.14
2023-03-26T17:53:18.729Z,4.14
2023-03-26T17:57:21.863Z,4.14
2023-03-26T17:59:22.949Z,4.14
2023-03-26T18:03:25.974Z,4.14
2023-03-26T18:09:29.900Z,4.14
2023-03-26T18:15:35.085Z,4.14
2023-03-26T18:19:38.264Z,4.14
2023-03-26T18:25:42.208Z,4.14
2023-03-26T18:29:45.640Z,4.14
2023-03-26T18:31:47.367Z,4.14
2023-03-26T18:35:50.835Z,4.13
2023-03-26T18:39:54.563Z,4.13
2023-03-26T18:41:55.777Z,4.14
2023-03-26T18:45:58.767Z,4.13
2023-03-26T18:50:01.810Z,4.14
2023-03-26T18:52:03.010Z,4.13
2023-03-26T18:56:06.505Z,4.13
2023-03-26T18:58:07.870Z,4.13
2023-03-26T19:00:09.003Z,4.13
2023-03-26T19:02:10.361Z,4.13
2023-03-26T19:08:15.113Z,4.13
2023-03-26T19:10:16.184Z,4.13
2023-03-26T19:14:19.656Z,4.13
2023-03-26T19:18:21.909Z,4.13
2023-03-26T19:24:26.349Z,4.12
2023-03-26T19:28:29.345Z,4.12
2023-03-26T19:30:30.325Z,4.12
2023-03-26T19:34:33.123Z,4.13
2023-03-26T19:38:36.163Z,4.12
2023-03-26T19:40:37.119Z,4.12
2023-03-26T19:44:40.045Z,4.12
2023-03-26T19:50:43.524Z,4.12
2023-03-26T19:56:47.712Z,4.12
2023-03-26T20:00:49.862Z,4.12
2023-03-26T20:06:53.323Z,4.12
2023-03-26T20:10:55.915Z,4.12
2023-03-26T20:12:56.985Z,4.12
2023-03-26T20:16:59.989Z,4.12
2023-03-26T20:21:02.791Z,4.12
2023-03-26T20:23:04.386Z,4.12
2023-03-26T20:27:07.332Z,4.12
2023-03-26T20:31:09.779Z,4.12
2023-03-26T20:33:13.704Z,4.12
2023-03-26T20:37:13.936Z,4.12
2023-03-26T20:39:14.949Z,4.12
2023-03-26T20:43:17.700Z,4.12
2023-03-26T20:49:21.787Z,4.11
2023-03-26T20:51:22.793Z,4.12
2023-03-26T20:55:25.808Z,4.12
2023-03-26T20:59:28.892Z,4.11
2023-03-26T21:05:33.894Z,4.11
2023-03-26T21:09:36.602Z,4.11
2023-03-26T21:15:41.531Z,4.11
2023-03-26T21:19:44.963Z,4.11
2023-03-26T21:21:46.128Z,4.11
2023-03-26T21:25:48.665Z,4.11
2023-03-26T21:31:54.058Z,4.11
2023-03-26T21:37:56.770Z,4.11
2023-03-26T21:42:04.596Z,4.1
2023-03-26T21:48:05.146Z,4.11
2023-03-26T21:52:07.244Z,4.1
2023-03-26T21:54:08.350Z,4.1
2023-03-26T21:56:54.077Z,4.1
2023-03-26T21:58:55.307Z,4.1
2023-03-26T22:02:58.712Z,4.1
2023-03-26T22:09:03.180Z,4.1
2023-03-26T22:15:07.528Z,4.1
2023-03-26T22:19:10.693Z,4.1
2023-03-26T22:25:14.793Z,4.1
2023-03-26T22:29:17.692Z,4.1
2023-03-26T22:31:18.945Z,4.1
2023-03-26T22:35:21.607Z,4.1
2023-03-26T22:39:24.797Z,4.1
2023-03-26T22:41:26.274Z,4.1
2023-03-26T22:45:29.038Z,4.1
2023-03-26T22:51:33.164Z,4.1
2023-03-26T22:57:37.788Z,4.1
2023-03-26T23:01:41.309Z,4.1
2023-03-26T23:07:44.682Z,4.09
2023-03-26T23:11:47.440Z,4.09
2023-03-26T23:13:48.701Z,4.09
2023-03-26T23:17:54.050Z,4.09
2023-03-26T23:21:54.743Z,4.09
2023-03-26T23:23:56.434Z,4.09
2023-03-26T23:27:59.156Z,4.09
2023-03-26T23:34:03.010Z,4.09
2023-03-26T23:40:07.498Z,4.09
2023-03-26T23:44:09.950Z,4.08
2023-03-26T23:50:14.315Z,4.08
2023-03-26T23:54:17.418Z,4.08
2023-03-26T23:56:19.302Z,4.08
